Historie AUP a zpráv METAR Praha-Ruzyně z 12:00 UTC

Datum: 08-12-2017 / Vyber datum:
LKPR 081200Z 25012KT 9999 FEW024 SCT042 04/01 Q1006 NOSIG
Prostor Spodní hranice Horní hranice Od Do
TRA61 GND 3000FT/AMSL 08:00 13:00
TRA62 3000FT/AMSL F245 08:00 13:00
TRA77 1000FT/AGL F245 08:00 13:00
TRA78 F075 F245 08:00 13:00
TRA79 F075 F245 08:00 13:00
TSA1 GND F065 08:00 12:00
TSA2B GND F065 07:00 12:00
TSA20 300FT/AGL 1000FT/AGL 08:00 13:00
TSA26 300FT/AGL 1000FT/AGL 08:00 13:00
TSA27 300FT/AGL 1000FT/AGL 08:00 13:00
TSA3A GND F125 08:00 12:30